Time;durP1;ratioP1;P1;durP2;ratioP2;P2;SDS_P1;SDS_P2;PMS_P1;PMS_P2;Temp;Humidity;BMP_temperature;BMP_pressure;BME280_temperature;BME280_humidity;BME280_pressure;Samples;Min_cycle;Max_cycle;Signal;HPM_P1;HPM_P2
2022/01/25 00:09:34;;;;;;;3.27;2.00;;;15.30;57.60;16.40;102532.00;;;;5049321;28;20538;-47
2022/01/25 00:26:15;;;;;;;2.83;2.00;;;15.10;57.20;16.30;102532.00;;;;5029823;28;20186;-48
2022/01/25 00:29:33;;;;;;;2.67;2.00;;;15.10;57.30;16.30;102536.00;;;;5029725;28;20677;-47
2022/01/25 00:31:27;;;;;;;2.03;1.90;;;15.10;57.40;16.30;102537.00;;;;5021394;28;20199;-46
2022/01/25 00:33:53;;;;;;;2.00;1.90;;;15.10;57.30;16.30;102529.00;;;;5028430;28;20175;-49
2022/01/25 00:36:21;;;;;;;2.30;2.10;;;15.00;57.50;16.30;102540.00;;;;5029656;28;20671;-46
2022/01/25 00:38:47;;;;;;;2.40;2.20;;;15.10;57.50;16.20;102539.00;;;;5029033;28;20669;-48
2022/01/25 00:41:14;;;;;;;2.43;2.10;;;15.00;57.30;16.20;102529.00;;;;5028894;28;20170;-48
2022/01/25 00:43:39;;;;;;;3.57;2.07;;;15.00;57.40;16.20;102536.00;;;;5029512;28;20706;-47
2022/01/25 00:46:09;;;;;;;4.03;2.00;;;14.90;57.50;16.20;102534.00;;;;5028806;28;20233;-47
2022/01/25 00:56:20;;;;;;;2.40;2.17;;;14.90;57.80;16.10;102528.00;;;;5045997;28;20167;-47
2022/01/25 00:58:46;;;;;;;2.23;2.03;;;14.90;57.50;16.10;102529.00;;;;5037786;28;20272;-46
2022/01/25 01:01:11;;;;;;;1.90;1.80;;;14.90;57.50;16.10;102527.00;;;;5043883;28;20182;-47
2022/01/25 01:03:37;;;;;;;2.30;1.80;;;14.80;57.50;16.10;102523.00;;;;5032811;28;20171;-47
2022/01/25 01:06:05;;;;;;;3.47;2.20;;;14.80;57.40;16.10;102523.00;;;;5028934;28;20576;-47
2022/01/25 01:08:31;;;;;;;2.07;1.83;;;14.90;57.50;16.10;102524.00;;;;5028846;28;20195;-46
2022/01/25 01:10:59;;;;;;;3.50;2.00;;;14.80;57.40;16.10;102533.00;;;;5028594;28;20175;-46
2022/01/25 01:33:07;;;;;;;2.03;1.93;;;14.70;57.40;16.00;102554.00;;;;5027256;28;20641;-47
2022/01/25 01:39:13;;;;;;;2.13;1.97;;;14.60;57.50;15.90;102544.00;;;;5028051;28;20866;-47
2022/01/25 01:41:32;;;;;;;2.17;1.97;;;14.60;57.60;15.90;102548.00;;;;5027800;28;20174;-47
2022/01/25 01:44:00;;;;;;;2.07;1.90;;;14.60;57.60;15.90;102538.00;;;;5027453;28;20216;-47
2022/01/25 01:46:35;;;;;;;2.00;1.80;;;14.50;57.60;15.90;102470.00;;;;5028831;28;20179;-45
2022/01/25 01:49:03;;;;;;;2.10;1.90;;;14.60;57.60;15.90;102552.00;;;;5028235;28;20252;-47
2022/01/25 01:51:33;;;;;;;2.10;1.90;;;14.60;57.70;15.80;102545.00;;;;5044219;28;20266;-46
2022/01/25 01:54:02;;;;;;;2.33;2.00;;;14.50;57.70;15.80;102545.00;;;;5050944;28;20220;-46
2022/01/25 01:56:28;;;;;;;1.87;1.77;;;14.50;57.60;15.80;102536.00;;;;5061321;28;20526;-47
2022/01/25 01:58:56;;;;;;;2.10;2.00;;;14.60;57.60;15.80;102534.00;;;;5049344;28;20213;-47
2022/01/25 02:01:24;;;;;;;2.27;2.07;;;14.50;57.70;15.80;102527.00;;;;5047173;28;20190;-46
2022/01/25 02:03:50;;;;;;;2.40;1.90;;;14.50;57.80;15.80;102526.00;;;;5048040;28;20629;-46
2022/01/25 02:06:16;;;;;;;2.07;1.97;;;14.50;57.80;15.80;102542.00;;;;5060520;28;20167;-46
2022/01/25 02:08:42;;;;;;;2.13;1.93;;;14.50;57.80;15.80;102530.00;;;;5052923;28;20685;-46
2022/01/25 02:11:08;;;;;;;2.40;1.80;;;14.50;57.60;15.80;102532.00;;;;5047123;28;20175;-46
2022/01/25 02:13:34;;;;;;;2.10;1.90;;;14.40;57.70;15.80;102531.00;;;;5046275;28;20262;-46
2022/01/25 02:16:04;;;;;;;2.20;2.00;;;14.40;57.80;15.80;102527.00;;;;5047378;28;20548;-46
2022/01/25 02:23:58;;;;;;;2.00;1.90;;;14.40;57.80;15.70;102538.00;;;;5046519;28;20280;-47
2022/01/25 02:26:24;;;;;;;2.10;1.90;;;14.40;58.00;15.70;102542.00;;;;5047000;28;20174;-47
2022/01/25 02:28:50;;;;;;;2.00;1.87;;;14.30;57.70;15.70;102535.00;;;;5047246;28;20198;-47
2022/01/25 02:31:16;;;;;;;1.93;1.80;;;14.30;58.00;15.60;102531.00;;;;5047265;28;20702;-47
2022/01/25 02:33:42;;;;;;;1.80;1.70;;;14.30;58.00;15.60;102536.00;;;;5047322;28;20177;-48
2022/01/25 02:36:12;;;;;;;1.90;1.80;;;14.30;58.00;15.60;102529.00;;;;5047103;28;20170;-46
2022/01/25 02:38:38;;;;;;;2.20;2.00;;;14.30;58.00;15.60;102532.00;;;;5047105;28;20210;-47
2022/01/25 02:41:04;;;;;;;1.80;1.70;;;14.30;58.00;15.60;102543.00;;;;5046082;28;20587;-46
2022/01/25 02:43:30;;;;;;;2.20;2.00;;;14.30;57.90;15.60;102540.00;;;;5047221;28;20538;-45
2022/01/25 02:48:29;;;;;;;2.10;1.90;;;14.20;57.90;15.60;102542.00;;;;5047044;28;20166;-46
2022/01/25 02:49:04;;;;;;;2.03;1.90;;;14.20;58.20;15.60;102530.00;;;;5043649;28;20252;-47
2022/01/25 02:51:43;;;;;;;1.90;1.80;;;14.20;58.00;15.50;102525.00;;;;5046426;28;20224;-47
2022/01/25 02:54:09;;;;;;;2.13;1.93;;;14.20;58.20;15.50;102525.00;;;;5046079;28;20163;-45
2022/01/25 02:56:36;;;;;;;2.40;2.13;;;14.20;58.10;15.50;102518.00;;;;5061462;28;20190;-48
2022/01/25 02:59:03;;;;;;;2.07;1.90;;;14.20;58.10;15.50;102515.00;;;;5046336;28;20232;-46
2022/01/25 03:01:28;;;;;;;2.23;2.03;;;14.20;58.30;15.50;102516.00;;;;5046233;28;20547;-46
2022/01/25 03:03:54;;;;;;;2.40;1.83;;;14.30;58.40;15.50;102510.00;;;;5050000;28;20173;-46
2022/01/25 03:06:21;;;;;;;2.00;1.90;;;14.40;58.10;15.50;102517.00;;;;5046477;28;20182;-47
2022/01/25 03:08:47;;;;;;;2.30;2.10;;;14.70;57.90;15.60;102510.00;;;;5046669;28;20201;-46
2022/01/25 03:11:13;;;;;;;2.10;1.90;;;14.90;57.50;15.70;102499.00;;;;5046337;28;20256;-47
2022/01/25 03:13:53;;;;;;;2.57;2.10;;;14.90;57.30;15.80;102488.00;;;;5046558;28;20590;-46
2022/01/25 03:16:38;;;;;;;2.30;2.10;;;15.10;57.20;15.80;102496.00;;;;5045671;28;20219;-48
2022/01/25 03:19:30;;;;;;;2.03;1.93;;;15.20;57.10;15.90;102418.00;;;;5045494;28;20711;-48
2022/01/25 03:21:53;;;;;;;2.10;1.90;;;15.20;57.10;15.90;102500.00;;;;5046138;28;20178;-47
2022/01/25 03:24:19;;;;;;;2.10;1.90;;;15.20;57.00;16.00;102492.00;;;;5047103;28;20181;-47
2022/01/25 03:26:44;;;;;;;2.00;1.90;;;15.20;57.10;16.00;102491.00;;;;5046683;28;20170;-46
2022/01/25 03:29:10;;;;;;;1.97;1.87;;;15.20;57.20;16.00;102487.00;;;;5046718;28;20198;-48
2022/01/25 03:31:36;;;;;;;2.57;2.10;;;15.20;57.20;16.00;102479.00;;;;5058248;28;20174;-47
2022/01/25 03:34:02;;;;;;;2.00;1.90;;;15.20;57.30;16.00;102488.00;;;;5061148;28;20263;-47
2022/01/25 03:36:27;;;;;;;2.43;1.70;;;15.20;57.30;16.10;102474.00;;;;5052323;28;20170;-48
2022/01/25 03:38:53;;;;;;;2.20;2.00;;;15.20;57.40;16.10;102479.00;;;;5046510;28;20591;-46
2022/01/25 03:41:19;;;;;;;1.87;1.77;;;15.20;57.40;16.10;102481.00;;;;5046908;28;20159;-47
2022/01/25 03:43:52;;;;;;;2.20;2.00;;;15.20;57.60;16.10;102484.00;;;;5048196;28;20200;-47
2022/01/25 03:51:40;;;;;;;1.93;1.80;;;15.10;57.60;16.10;102497.00;;;;5046345;28;20252;-45
2022/01/25 03:54:05;;;;;;;2.43;2.00;;;15.10;57.70;16.10;102498.00;;;;5046437;28;20775;-46
2022/01/25 03:56:31;;;;;;;2.27;2.07;;;15.10;57.60;16.10;102500.00;;;;5046103;28;20186;-47
2022/01/25 03:58:57;;;;;;;2.07;1.87;;;15.10;57.70;16.10;102504.00;;;;5046095;28;20280;-47
2022/01/25 04:01:23;;;;;;;2.10;1.90;;;15.10;57.70;16.00;102484.00;;;;5046200;28;20641;-47
2022/01/25 04:03:58;;;;;;;2.20;2.00;;;15.00;58.30;16.10;102485.00;;;;5046424;28;20167;-45
2022/01/25 04:06:24;;;;;;;1.90;1.80;;;15.00;57.80;16.00;102477.00;;;;5046258;28;20181;-47
2022/01/25 04:08:50;;;;;;;1.97;1.87;;;15.00;57.80;16.00;102484.00;;;;5047986;28;20249;-47
2022/01/25 04:11:16;;;;;;;2.20;2.00;;;15.00;57.80;16.00;102477.00;;;;5049395;28;20213;-47
2022/01/25 04:13:41;;;;;;;2.07;1.90;;;15.00;57.80;16.00;102480.00;;;;5048606;28;20163;-48
2022/01/25 04:16:15;;;;;;;2.00;1.90;;;15.00;57.80;16.00;102475.00;;;;5049623;28;20186;-46
2022/01/25 04:18:56;;;;;;;2.23;2.03;;;15.00;57.90;16.00;102477.00;;;;5049708;28;20217;-46
2022/01/25 04:21:39;;;;;;;2.20;2.00;;;14.90;57.90;16.00;102486.00;;;;5049660;28;20527;-46
2022/01/25 04:26:52;;;;;;;1.90;1.80;;;15.00;58.20;15.90;102485.00;;;;5048728;28;20201;-47
2022/01/25 04:29:18;;;;;;;2.10;1.80;;;14.90;58.20;15.90;102486.00;;;;5049123;28;20166;-48
2022/01/25 04:31:43;;;;;;;5.13;2.17;;;14.90;58.30;15.90;102471.00;;;;5049080;28;20182;-48
2022/01/25 04:50:21;;;;;;;2.07;1.97;;;14.80;58.30;15.90;102476.00;;;;5048679;28;20189;-47
2022/01/25 04:52:58;;;;;;;4.23;1.80;;;14.70;58.30;15.80;102476.00;;;;5048290;28;20154;-48
2022/01/25 04:55:33;;;;;;;2.77;2.07;;;14.70;58.20;15.90;102470.00;;;;5049026;28;20163;-48
2022/01/25 04:58:06;;;;;;;3.27;2.13;;;14.70;58.30;15.80;102470.00;;;;5048747;28;20210;-46
2022/01/25 05:00:33;;;;;;;2.53;1.97;;;14.70;58.40;15.80;102462.00;;;;5048691;28;20174;-46
2022/01/25 05:03:10;;;;;;;3.27;2.20;;;14.70;58.40;15.80;102458.00;;;;5049111;28;20201;-47
2022/01/25 05:05:41;;;;;;;2.70;2.10;;;14.70;58.60;15.80;102450.00;;;;5048995;28;20170;-50
2022/01/25 05:08:21;;;;;;;2.17;1.97;;;14.70;58.60;15.70;102457.00;;;;5058659;28;20202;-46
2022/01/25 05:10:58;;;;;;;4.03;2.30;;;14.60;58.40;15.70;102463.00;;;;5057181;28;20825;-48
2022/01/25 05:13:47;;;;;;;2.07;1.90;;;14.60;58.40;15.70;102464.00;;;;5019558;28;20172;-47
2022/01/25 05:16:31;;;;;;;3.60;2.23;;;14.60;58.40;15.70;102459.00;;;;5030433;28;20171;-49
2022/01/25 05:24:24;;;;;;;2.77;2.40;;;14.50;58.10;15.70;102466.00;;;;5008004;28;20183;-46
2022/01/25 05:26:49;;;;;;;2.70;2.50;;;14.50;58.10;15.60;102457.00;;;;5007992;28;20164;-48
2022/01/25 05:29:15;;;;;;;3.27;2.73;;;14.50;58.30;15.60;102461.00;;;;5008845;28;20210;-47
2022/01/25 05:31:41;;;;;;;4.50;2.83;;;14.50;58.20;15.60;102468.00;;;;5008481;28;20784;-46
2022/01/25 05:34:09;;;;;;;2.90;2.60;;;14.50;58.30;15.60;102460.00;;;;5008579;28;20186;-47
2022/01/25 05:36:36;;;;;;;3.00;2.70;;;14.40;58.20;15.60;102476.00;;;;5008139;28;20203;-46
2022/01/25 05:39:09;;;;;;;3.60;2.40;;;14.40;58.30;15.50;102471.00;;;;5007982;28;20222;-47
2022/01/25 05:41:35;;;;;;;3.10;2.80;;;14.40;58.40;15.60;102470.00;;;;5008374;28;20187;-46
2022/01/25 05:47:03;;;;;;;2.80;2.60;;;14.40;58.40;15.50;102429.00;;;;5019791;28;20195;-48
2022/01/25 05:49:29;;;;;;;2.70;2.50;;;14.40;58.50;15.50;102461.00;;;;5021473;28;20239;-49
2022/01/25 05:51:54;;;;;;;3.13;2.60;;;14.30;58.40;15.50;102466.00;;;;5026709;28;20549;-48
2022/01/25 05:54:20;;;;;;;3.80;2.70;;;14.30;58.40;15.50;102468.00;;;;5009174;28;20180;-46
2022/01/25 05:56:46;;;;;;;3.37;2.60;;;14.30;58.40;15.50;102460.00;;;;5008140;28;20175;-47
2022/01/25 05:59:11;;;;;;;4.03;2.70;;;14.30;58.40;15.50;102462.00;;;;5008389;28;20219;-47
2022/01/25 06:01:37;;;;;;;2.70;2.50;;;14.30;58.40;15.40;102459.00;;;;5007966;28;20171;-46
2022/01/25 06:04:03;;;;;;;2.67;2.47;;;14.30;58.40;15.40;102461.00;;;;5007842;28;20183;-47
2022/01/25 06:06:29;;;;;;;2.60;2.40;;;14.30;58.40;15.40;102471.00;;;;5007369;28;20187;-47
2022/01/25 06:08:56;;;;;;;3.73;2.50;;;14.20;58.30;15.40;102466.00;;;;5007479;28;20204;-47
2022/01/25 06:11:22;;;;;;;3.03;2.43;;;14.20;58.30;15.40;102461.00;;;;5012459;28;20229;-47
2022/01/25 06:13:48;;;;;;;2.70;2.50;;;14.20;58.40;15.40;102461.00;;;;5044735;28;20232;-47
2022/01/25 06:16:14;;;;;;;3.53;2.80;;;14.30;58.30;15.40;102457.00;;;;5047513;28;20182;-47
2022/01/25 06:18:39;;;;;;;3.23;2.70;;;14.30;58.10;15.50;102472.00;;;;5047376;28;20796;-47
2022/01/25 06:21:05;;;;;;;2.77;2.57;;;14.60;57.90;15.60;102468.00;;;;5046878;28;20174;-47
2022/01/25 06:23:31;;;;;;;3.10;2.87;;;14.80;57.50;15.60;102456.00;;;;5046311;28;20185;-46
2022/01/25 06:25:56;;;;;;;2.50;2.30;;;15.00;57.20;15.70;102463.00;;;;5047041;28;20175;-48
2022/01/25 06:28:22;;;;;;;2.40;2.20;;;15.10;56.90;15.80;102461.00;;;;5047237;28;20718;-48
2022/01/25 06:30:48;;;;;;;2.70;2.50;;;15.20;57.00;15.90;102461.00;;;;5046323;28;20220;-45
2022/01/25 06:33:14;;;;;;;2.60;2.40;;;15.20;56.90;15.90;102456.00;;;;5046743;28;20202;-47
2022/01/25 06:35:40;;;;;;;2.63;2.40;;;15.20;56.80;16.00;102453.00;;;;5046559;28;20182;-47
2022/01/25 06:38:05;;;;;;;2.73;2.50;;;15.30;56.80;16.00;102463.00;;;;5045837;28;20202;-48
2022/01/25 06:40:31;;;;;;;2.90;2.60;;;15.30;56.80;16.00;102469.00;;;;5045850;28;20873;-47
2022/01/25 06:42:57;;;;;;;2.50;2.30;;;15.30;56.90;16.00;102468.00;;;;5046931;28;20724;-47
2022/01/25 06:45:24;;;;;;;3.07;2.60;;;15.40;57.00;16.00;102479.00;;;;5046877;28;20151;-45
2022/01/25 06:47:50;;;;;;;2.60;2.40;;;15.40;57.10;16.00;102475.00;;;;5046751;28;20307;-46
2022/01/25 06:50:18;;;;;;;2.30;2.20;;;15.40;57.10;16.00;102471.00;;;;5046873;28;20178;-47
2022/01/25 06:52:44;;;;;;;2.60;2.40;;;15.30;57.10;16.00;102477.00;;;;5048533;28;20337;-48
2022/01/25 06:55:12;;;;;;;2.57;2.37;;;15.30;57.10;16.00;102414.00;;;;5045234;28;20225;-47
2022/01/25 06:57:38;;;;;;;2.80;2.60;;;15.20;57.00;16.00;102475.00;;;;5046496;28;20210;-47
2022/01/25 07:00:07;;;;;;;2.60;2.40;;;15.20;57.00;16.00;102484.00;;;;5030317;28;20625;-47
2022/01/25 07:02:33;;;;;;;2.63;2.40;;;15.30;57.30;16.10;102476.00;;;;5028251;28;20723;-46
2022/01/25 07:04:59;;;;;;;2.53;2.33;;;15.20;57.30;16.00;102479.00;;;;5028078;28;20249;-47
2022/01/25 07:07:25;;;;;;;2.70;2.50;;;15.20;57.30;16.00;102477.00;;;;5027766;28;20278;-47
2022/01/25 07:09:51;;;;;;;2.60;2.40;;;15.10;57.30;16.00;102486.00;;;;5028282;28;20179;-46
2022/01/25 07:12:16;;;;;;;2.80;2.60;;;15.20;57.40;16.00;102491.00;;;;5028511;28;20175;-47
2022/01/25 07:14:43;;;;;;;2.50;2.30;;;15.10;57.40;16.00;102481.00;;;;5028039;28;20174;-49
2022/01/25 07:17:09;;;;;;;3.60;2.60;;;15.10;57.50;16.00;102485.00;;;;5028241;28;21654;-47
2022/01/25 07:19:34;;;;;;;8.40;2.43;;;15.10;57.60;16.00;102482.00;;;;5028332;28;20206;-47
2022/01/25 07:22:00;;;;;;;2.70;2.50;;;15.10;57.70;16.00;102490.00;;;;5026643;28;20233;-47
2022/01/25 07:24:26;;;;;;;3.57;2.67;;;15.20;57.70;16.00;102494.00;;;;5028086;28;20159;-48
2022/01/25 07:26:51;;;;;;;2.93;2.50;;;15.30;57.60;16.10;102495.00;;;;5027593;28;20174;-46
2022/01/25 07:29:17;;;;;;;2.63;2.43;;;15.40;57.50;16.10;102494.00;;;;5027651;28;20179;-47
2022/01/25 07:31:44;;;;;;;3.50;2.50;;;15.40;57.40;16.10;102491.00;;;;5028266;28;20182;-47
2022/01/25 07:34:10;;;;;;;4.47;2.57;;;15.40;57.90;16.20;102486.00;;;;5028034;28;20317;-47
2022/01/25 07:36:37;;;;;;;2.83;2.60;;;15.50;57.80;16.20;102484.00;;;;5027183;28;20269;-46
2022/01/25 07:39:03;;;;;;;3.50;3.20;;;15.50;57.60;16.20;102485.00;;;;5027760;28;20555;-46
2022/01/25 07:41:29;;;;;;;3.00;2.80;;;15.60;57.40;16.20;102480.00;;;;5027921;28;20163;-47
2022/01/25 07:43:56;;;;;;;4.77;3.30;;;15.50;57.10;16.20;102474.00;;;;5031691;28;20177;-47
2022/01/25 07:46:21;;;;;;;4.60;3.17;;;15.60;56.90;16.20;102475.00;;;;5031711;28;20309;-47
2022/01/25 07:48:47;;;;;;;4.23;3.83;;;15.50;56.80;16.30;102483.00;;;;5031324;28;20194;-47
2022/01/25 07:51:13;;;;;;;4.10;3.57;;;15.60;56.70;16.30;102477.00;;;;5031594;28;20171;-47
2022/01/25 07:53:39;;;;;;;5.27;3.90;;;15.60;56.50;16.30;102475.00;;;;5031989;28;20402;-46
2022/01/25 07:56:05;;;;;;;4.00;3.70;;;15.60;56.40;16.30;102492.00;;;;5033519;28;20254;-45
2022/01/25 07:58:30;;;;;;;3.80;3.50;;;15.60;56.20;16.30;102473.00;;;;5036898;28;20219;-47
2022/01/25 08:00:56;;;;;;;3.77;3.47;;;15.60;56.30;16.30;102473.00;;;;5040164;28;20182;-47
2022/01/25 08:03:22;;;;;;;5.40;3.50;;;15.60;56.30;16.40;102465.00;;;;5032303;28;20756;-47
2022/01/25 08:05:50;;;;;;;7.40;3.40;;;15.70;56.40;16.40;102482.00;;;;5030485;28;20262;-47
2022/01/25 08:08:16;;;;;;;4.63;3.30;;;15.70;56.50;16.40;102488.00;;;;5032313;28;20203;-47
2022/01/25 08:10:42;;;;;;;5.83;3.30;;;15.70;56.70;16.40;102478.00;;;;5031819;28;20305;-47
2022/01/25 08:13:08;;;;;;;6.00;3.27;;;15.70;56.90;16.40;102487.00;;;;5030008;28;20258;-47
2022/01/25 08:15:33;;;;;;;6.57;3.17;;;15.80;57.00;16.40;102451.00;;;;5031147;28;20179;-47
2022/01/25 08:17:59;;;;;;;4.53;2.90;;;15.70;57.10;16.50;102484.00;;;;5030475;28;20198;-52
2022/01/25 08:20:25;;;;;;;7.03;3.10;;;15.80;57.10;16.50;102479.00;;;;5041527;28;20225;-47
2022/01/25 08:22:51;;;;;;;9.73;3.50;;;15.80;57.10;16.50;102494.00;;;;5039581;28;20175;-49
2022/01/25 08:25:16;;;;;;;5.00;2.87;;;15.80;57.20;16.50;102480.00;;;;5029699;28;20171;-46
2022/01/25 08:27:42;;;;;;;5.00;2.63;;;15.80;57.20;16.50;102476.00;;;;5031543;28;20194;-46
2022/01/25 08:30:09;;;;;;;10.73;2.93;;;15.90;57.30;16.50;102479.00;;;;5031195;28;20685;-47
2022/01/25 08:32:34;;;;;;;3.30;2.90;;;15.90;57.20;16.50;102479.00;;;;5031678;28;20167;-46
2022/01/25 08:35:00;;;;;;;2.80;2.53;;;15.90;56.90;16.50;102499.00;;;;5029642;28;20196;-48
2022/01/25 08:37:26;;;;;;;7.00;3.10;;;15.90;56.90;16.50;102499.00;;;;5029675;28;20286;-46
2022/01/25 08:39:52;;;;;;;6.00;2.77;;;16.00;56.90;16.60;102495.00;;;;5030598;28;20195;-47
2022/01/25 08:42:18;;;;;;;7.07;2.90;;;15.90;56.90;16.60;102494.00;;;;5030976;28;20163;-46
2022/01/25 08:44:43;;;;;;;6.77;2.93;;;15.90;56.90;16.60;102502.00;;;;5028167;28;20179;-46
2022/01/25 08:47:09;;;;;;;7.90;2.90;;;15.90;57.10;16.60;102503.00;;;;5030682;28;20257;-47
2022/01/25 08:49:35;;;;;;;3.07;2.60;;;16.00;57.30;16.60;102492.00;;;;5055784;28;20189;-47
2022/01/25 08:52:02;;;;;;;3.70;2.80;;;16.00;57.30;16.60;102496.00;;;;5058201;28;20432;-47
2022/01/25 08:54:27;;;;;;;4.80;2.80;;;16.00;57.50;16.70;102496.00;;;;5051482;28;20201;-47
2022/01/25 08:56:53;;;;;;;6.27;2.97;;;16.10;57.30;16.70;102498.00;;;;5050729;28;20771;-47
2022/01/25 08:59:19;;;;;;;5.63;2.67;;;16.10;57.20;16.70;102495.00;;;;5050312;28;20671;-46
2022/01/25 09:01:45;;;;;;;4.40;2.80;;;16.10;57.10;16.70;102502.00;;;;5037439;28;20177;-47
2022/01/25 09:04:11;;;;;;;9.23;3.00;;;16.10;57.30;16.70;102504.00;;;;5029962;28;20183;-48
2022/01/25 09:06:36;;;;;;;6.13;3.03;;;16.10;57.90;16.70;102500.00;;;;5029869;28;20600;-47
2022/01/25 09:09:07;;;;;;;5.63;2.73;;;16.10;57.80;16.80;102499.00;;;;5029594;28;20202;-46
2022/01/25 09:11:34;;;;;;;5.20;3.20;;;16.10;57.70;16.80;102505.00;;;;5030117;28;20167;-47
2022/01/25 09:14:00;;;;;;;5.80;2.90;;;16.10;57.80;16.80;102506.00;;;;5030184;28;20163;-47
2022/01/25 09:16:26;;;;;;;7.30;2.87;;;16.20;57.90;16.80;102502.00;;;;5029916;28;20174;-45
2022/01/25 09:18:51;;;;;;;12.00;4.13;;;16.10;57.90;16.80;102516.00;;;;5030006;28;20195;-46
2022/01/25 09:21:17;;;;;;;9.33;4.77;;;16.10;57.80;16.80;102517.00;;;;5030233;28;20704;-47
2022/01/25 09:23:43;;;;;;;10.63;4.60;;;16.10;57.60;16.80;102513.00;;;;5030044;28;20217;-46
2022/01/25 09:26:09;;;;;;;15.17;5.30;;;16.10;57.60;16.80;102523.00;;;;5032640;28;20237;-46
2022/01/25 09:28:34;;;;;;;11.47;5.40;;;16.10;57.50;16.80;102526.00;;;;5036149;28;20195;-47
2022/01/25 09:31:01;;;;;;;11.57;4.87;;;16.10;57.40;16.80;102520.00;;;;5029884;28;20229;-47
2022/01/25 09:33:27;;;;;;;15.33;5.20;;;16.10;57.30;16.80;102525.00;;;;5028919;28;20182;-46
2022/01/25 09:35:53;;;;;;;11.77;5.40;;;16.10;57.30;16.80;102520.00;;;;5028871;28;20483;-46
2022/01/25 09:38:19;;;;;;;14.50;5.37;;;16.10;57.30;16.80;102527.00;;;;5029900;28;20265;-46
2022/01/25 09:40:45;;;;;;;10.97;5.43;;;16.20;57.30;16.80;102526.00;;;;5029432;28;20661;-48
2022/01/25 09:43:11;;;;;;;14.27;5.60;;;16.10;57.10;16.90;102532.00;;;;5013049;28;20174;-49
2022/01/25 09:45:36;;;;;;;10.90;5.10;;;16.20;57.20;16.90;102535.00;;;;5030142;28;20179;-45
2022/01/25 09:48:04;;;;;;;13.70;5.67;;;16.20;57.20;16.90;102531.00;;;;5029802;28;20699;-47
2022/01/25 09:50:29;;;;;;;11.70;5.20;;;16.20;57.20;16.90;102534.00;;;;5036219;28;20363;-47
2022/01/25 09:52:55;;;;;;;12.67;5.33;;;16.20;57.20;16.90;102527.00;;;;5049417;28;20297;-47
2022/01/25 09:55:23;;;;;;;11.77;5.53;;;16.20;57.00;16.90;102526.00;;;;5047662;28;20236;-47
2022/01/25 09:57:49;;;;;;;12.13;5.37;;;16.20;57.00;16.90;102534.00;;;;5049690;28;20206;-46
2022/01/25 10:00:19;;;;;;;10.27;5.10;;;16.30;57.10;16.90;102530.00;;;;5049314;28;20205;-47
2022/01/25 10:03:18;;;;;;;9.70;4.90;;;16.30;57.10;16.90;102527.00;;;;5053966;28;20200;-46
2022/01/25 10:05:45;;;;;;;10.13;5.00;;;16.20;56.90;16.90;102537.00;;;;5051205;28;20174;-45
2022/01/25 10:08:35;;;;;;;10.07;4.63;;;16.30;57.00;16.90;102510.00;;;;5049345;28;20270;-47
2022/01/25 10:11:09;;;;;;;7.57;4.40;;;16.30;57.00;16.90;102539.00;;;;5050004;28;20158;-47
2022/01/25 10:13:38;;;;;;;7.93;4.77;;;16.30;57.00;17.00;102533.00;;;;5050118;28;20488;-46
2022/01/25 10:16:17;;;;;;;9.83;4.67;;;16.30;57.00;17.00;102532.00;;;;5048679;28;20577;-46
2022/01/25 10:18:51;;;;;;;9.27;4.47;;;16.30;56.90;17.00;102535.00;;;;5049067;28;20208;-47
2022/01/25 10:21:29;;;;;;;8.50;4.50;;;16.30;56.90;17.00;102546.00;;;;5049045;28;20364;-46
2022/01/25 10:24:01;;;;;;;10.63;4.53;;;16.30;56.90;17.00;102543.00;;;;5048659;28;20212;-47
2022/01/25 10:26:40;;;;;;;9.00;4.70;;;16.30;56.90;17.00;102549.00;;;;5048796;28;20181;-45
2022/01/25 10:29:07;;;;;;;8.73;4.30;;;16.30;56.90;17.00;102552.00;;;;5048710;28;20340;-48
2022/01/25 10:31:56;;;;;;;7.80;4.20;;;16.40;56.90;17.00;102477.00;;;;5048603;28;20174;-47
2022/01/25 10:34:43;;;;;;;7.93;4.40;;;16.40;56.80;17.00;102550.00;;;;5049016;28;20163;-48
2022/01/25 10:37:21;;;;;;;8.13;4.33;;;16.40;56.80;17.00;102548.00;;;;5049060;28;20263;-46
2022/01/25 10:39:49;;;;;;;7.17;4.00;;;16.40;56.80;17.00;102539.00;;;;5047166;28;20202;-45
2022/01/25 10:42:27;;;;;;;6.47;4.27;;;16.40;56.80;17.00;102535.00;;;;5047254;28;20174;-46
2022/01/25 10:44:58;;;;;;;8.73;3.93;;;16.30;56.70;17.00;102539.00;;;;5048455;28;20555;-45
2022/01/25 10:47:42;;;;;;;6.47;4.30;;;16.30;56.80;17.00;102534.00;;;;5048746;28;20541;-45
2022/01/25 10:50:19;;;;;;;6.80;4.00;;;16.30;56.80;17.00;102542.00;;;;5050008;28;20280;-46
2022/01/25 10:52:45;;;;;;;6.03;3.97;;;16.20;56.90;17.00;102539.00;;;;5048439;28;20166;-46
2022/01/25 10:55:11;;;;;;;5.97;3.90;;;16.20;56.90;17.00;102541.00;;;;5047052;28;20608;-46
2022/01/25 10:57:37;;;;;;;6.13;3.77;;;16.20;57.00;17.00;102534.00;;;;5048277;28;20263;-49
2022/01/25 11:00:11;;;;;;;6.23;4.03;;;16.20;57.00;17.00;102532.00;;;;5048039;28;20285;-47
2022/01/25 11:02:57;;;;;;;5.73;3.93;;;16.10;57.00;16.90;102525.00;;;;5047268;28;20166;-46
2022/01/25 11:05:23;;;;;;;5.60;4.10;;;16.10;57.00;16.90;102520.00;;;;5048223;28;20181;-47
2022/01/25 11:07:48;;;;;;;6.10;3.93;;;16.10;57.10;16.90;102525.00;;;;5030560;28;20194;-47
2022/01/25 11:10:17;;;;;;;5.93;3.80;;;16.10;57.10;16.90;102523.00;;;;5048087;28;20617;-46
2022/01/25 11:12:58;;;;;;;4.50;3.50;;;16.20;56.90;16.90;102530.00;;;;5048434;28;20674;-45
2022/01/25 11:15:24;;;;;;;5.53;3.73;;;16.20;56.90;16.90;102526.00;;;;5047123;28;20162;-46
2022/01/25 11:17:49;;;;;;;5.37;3.73;;;16.20;56.80;16.90;102522.00;;;;5050055;28;20201;-48
2022/01/25 11:20:15;;;;;;;6.03;3.93;;;16.20;56.70;16.90;102526.00;;;;5052421;28;20202;-47
2022/01/25 11:22:41;;;;;;;4.43;3.60;;;16.30;56.60;17.00;102524.00;;;;5059043;28;20235;-47
2022/01/25 11:25:07;;;;;;;5.60;3.90;;;16.30;56.50;17.00;102531.00;;;;5058345;28;20166;-47
2022/01/25 11:27:33;;;;;;;4.77;3.47;;;16.30;56.50;17.00;102524.00;;;;5052751;28;20198;-46
2022/01/25 11:30:14;;;;;;;4.53;3.60;;;16.30;56.50;17.00;102520.00;;;;5052144;28;20240;-46
2022/01/25 11:32:43;;;;;;;5.37;3.50;;;16.40;56.50;17.00;102517.00;;;;5050699;28;20535;-47
2022/01/25 11:35:11;;;;;;;4.43;3.30;;;16.30;56.40;17.00;102515.00;;;;5050830;28;20640;-47
2022/01/25 11:37:45;;;;;;;3.60;3.30;;;16.40;56.40;17.00;102517.00;;;;5052518;28;20601;-46
2022/01/25 11:40:25;;;;;;;4.13;3.20;;;16.40;56.40;17.10;102519.00;;;;5052004;28;20237;-47
2022/01/25 11:42:54;;;;;;;4.83;4.07;;;16.40;56.30;17.10;102519.00;;;;5051673;28;20158;-46
2022/01/25 11:45:23;;;;;;;5.10;3.50;;;16.40;56.20;17.10;102527.00;;;;5050465;28;20397;-45
2022/01/25 11:47:49;;;;;;;3.93;3.50;;;16.50;56.30;17.10;102524.00;;;;5052418;28;20194;-48
2022/01/25 11:50:15;;;;;;;5.17;3.67;;;16.40;56.20;17.10;102520.00;;;;5052629;28;20178;-47
2022/01/25 11:52:50;;;;;;;4.10;3.57;;;16.40;56.20;17.10;102528.00;;;;5051796;28;20549;-47
2022/01/25 11:55:28;;;;;;;3.83;3.40;;;16.40;56.20;17.10;102526.00;;;;5051477;28;20174;-47
2022/01/25 11:58:06;;;;;;;4.30;3.43;;;16.40;56.30;17.10;102509.00;;;;5051564;28;20209;-46
2022/01/25 12:00:59;;;;;;;4.17;3.37;;;16.40;56.40;17.10;102513.00;;;;5051601;28;20212;-46
2022/01/25 12:03:40;;;;;;;4.20;3.50;;;16.40;56.40;17.10;102517.00;;;;5047127;28;20201;-46
2022/01/25 12:06:20;;;;;;;4.50;3.73;;;16.30;56.40;17.10;102513.00;;;;5051341;28;20569;-47
2022/01/25 12:12:01;;;;;;;4.83;3.57;;;16.30;56.50;17.00;102512.00;;;;5033885;28;20221;-46
2022/01/25 12:14:33;;;;;;;5.20;3.80;;;16.20;56.60;17.00;102505.00;;;;5051274;28;20564;-45
2022/01/25 12:17:35;;;;;;;4.40;3.60;;;16.20;56.70;17.00;102507.00;;;;5051547;28;20178;-45
2022/01/25 12:20:04;;;;;;;3.97;3.50;;;16.20;56.70;17.00;102497.00;;;;5048664;28;20235;-47
2022/01/25 12:22:36;;;;;;;3.73;3.30;;;16.20;56.80;17.00;102507.00;;;;5054920;28;20163;-48
2022/01/25 12:25:19;;;;;;;4.97;3.50;;;16.10;56.50;17.00;102510.00;;;;5057363;28;20363;-47
2022/01/25 12:28:01;;;;;;;4.03;3.47;;;16.20;56.50;17.00;102497.00;;;;5062407;28;20261;-47
2022/01/25 12:30:43;;;;;;;4.27;3.40;;;16.30;56.40;17.00;102499.00;;;;5050171;28;20246;-47